createdAt,value
2022-11-23T00:00:28.587Z,99957.53
2022-11-23T00:02:56.148Z,99958.22
2022-11-23T00:05:25.762Z,99951.97
2022-11-23T00:07:53.333Z,99956.91
2022-11-23T00:10:21.448Z,99954.28
2022-11-23T00:12:49.192Z,99952.16
2022-11-23T00:15:17.330Z,99953.50
2022-11-23T00:17:44.865Z,99954.16
2022-11-23T00:20:12.793Z,99958.44
2022-11-23T00:22:41.692Z,99952.88
2022-11-23T00:25:09.993Z,99955.19
2022-11-23T00:27:37.617Z,99963.72
2022-11-23T00:30:05.638Z,99959.81
2022-11-23T00:32:33.177Z,99957.69
2022-11-23T00:35:00.749Z,99947.50
2022-11-23T00:37:28.303Z,99941.94
2022-11-23T00:39:57.191Z,99935.41
2022-11-23T00:42:24.743Z,99932.59
2022-11-23T00:44:52.292Z,99929.81
2022-11-23T00:47:19.860Z,99930.28
2022-11-23T00:49:47.458Z,99925.72
2022-11-23T00:52:15.013Z,99929.00
2022-11-23T00:54:42.607Z,99930.47
2022-11-23T00:57:11.568Z,99931.97
2022-11-23T00:59:39.187Z,99936.06
2022-11-23T01:02:06.825Z,99924.75
2022-11-23T01:04:34.677Z,99928.53
2022-11-23T01:07:02.408Z,99942.03
2022-11-23T01:09:30.410Z,99940.22
2022-11-23T01:11:58.244Z,99931.03
2022-11-23T01:14:27.179Z,99929.88
2022-11-23T01:16:54.738Z,99937.44
2022-11-23T01:19:22.482Z,99933.81
2022-11-23T01:21:50.318Z,99930.84
2022-11-23T01:24:19.752Z,99933.47
2022-11-23T01:26:51.564Z,99926.41
2022-11-23T01:29:19.357Z,99928.22
2022-11-23T01:31:48.344Z,99933.34
2022-11-23T01:34:17.004Z,99932.34
2022-11-23T01:36:45.704Z,99930.38
2022-11-23T01:39:14.151Z,99933.84
2022-11-23T01:41:44.427Z,99931.84
2022-11-23T01:44:30.515Z,99935.00
2022-11-23T01:47:01.281Z,99932.50
2022-11-23T01:49:32.873Z,99935.97
2022-11-23T01:52:06.689Z,99936.78
2022-11-23T01:54:39.488Z,99939.44
2022-11-23T01:57:11.461Z,99933.00
2022-11-23T01:59:39.574Z,99938.91
2022-11-23T02:02:08.701Z,99939.75
2022-11-23T02:04:41.085Z,99925.63
2022-11-23T02:07:09.417Z,99931.72
2022-11-23T02:09:37.292Z,99928.91
2022-11-23T02:12:08.358Z,99925.94
2022-11-23T02:14:36.137Z,99917.41
2022-11-23T02:17:03.861Z,99926.44
2022-11-23T02:19:43.695Z,99914.59
2022-11-23T02:22:15.513Z,99922.47
2022-11-23T02:24:50.581Z,99915.41
2022-11-23T02:27:20.673Z,99928.91
2022-11-23T02:29:49.090Z,99929.72
2022-11-23T02:32:22.968Z,99928.41
2022-11-23T02:34:50.722Z,99931.03
2022-11-23T02:37:19.280Z,99930.91
2022-11-23T02:39:50.480Z,99929.75
2022-11-23T02:42:19.677Z,99929.56
2022-11-23T02:44:54.861Z,99922.50
2022-11-23T02:47:22.601Z,99920.34
2022-11-23T02:49:50.768Z,99918.22
2022-11-23T02:52:19.345Z,99919.50
2022-11-23T02:54:46.951Z,99928.09
2022-11-23T02:57:14.815Z,99930.38
2022-11-23T02:59:43.703Z,99938.09
2022-11-23T03:02:11.260Z,99920.66
2022-11-23T03:04:38.878Z,99915.88
2022-11-23T03:07:06.517Z,99922.16
2022-11-23T03:09:34.388Z,99924.63
2022-11-23T03:12:02.184Z,99921.97
2022-11-23T03:14:29.869Z,99924.28
2022-11-23T03:16:58.795Z,99921.50
2022-11-23T03:19:26.441Z,99918.88
2022-11-23T03:21:54.011Z,99918.03
2022-11-23T03:24:21.542Z,99918.53
2022-11-23T03:26:49.349Z,99911.75
2022-11-23T03:29:16.966Z,99919.50
2022-11-23T03:31:44.689Z,99933.31
2022-11-23T03:34:13.647Z,99919.81
2022-11-23T03:36:41.238Z,99917.19
2022-11-23T03:39:09.071Z,99912.09
2022-11-23T03:41:36.640Z,99914.06
2022-11-23T03:44:04.280Z,99915.91
2022-11-23T03:46:32.037Z,99914.25
2022-11-23T03:48:59.584Z,99921.31
2022-11-23T03:51:28.487Z,99926.44
2022-11-23T03:53:56.060Z,99921.16
2022-11-23T03:56:24.481Z,99916.53
2022-11-23T04:02:39.104Z,99914.56
2022-11-23T04:05:07.572Z,99910.94
2022-11-23T04:07:36.692Z,99913.25
2022-11-23T04:10:05.018Z,99915.69
2022-11-23T04:12:32.592Z,99912.72
2022-11-23T04:15:00.136Z,99920.28
2022-11-23T04:17:27.677Z,99918.97
2022-11-23T04:19:55.225Z,99922.25
2022-11-23T04:22:22.760Z,99915.66
2022-11-23T04:24:51.635Z,99915.47
2022-11-23T04:27:19.428Z,99911.72
2022-11-23T04:29:47.008Z,99908.75
2022-11-23T04:32:14.543Z,99906.75
2022-11-23T04:34:42.104Z,99905.91
2022-11-23T04:37:13.327Z,99911.84
2022-11-23T04:39:41.365Z,99912.31
2022-11-23T04:42:10.498Z,99907.25
2022-11-23T04:44:38.050Z,99902.47
2022-11-23T04:47:05.757Z,99900.63
2022-11-23T04:49:33.518Z,99899.28
2022-11-23T04:52:01.277Z,99893.84
2022-11-23T04:54:28.838Z,99893.03
2022-11-23T04:56:56.542Z,99886.94
2022-11-23T04:59:25.456Z,99894.66
2022-11-23T05:01:53.086Z,99898.94
2022-11-23T05:04:20.728Z,99899.59
2022-11-23T05:06:48.305Z,99906.53
2022-11-23T05:09:16.249Z,99906.53
2022-11-23T05:11:43.828Z,99900.59
2022-11-23T05:14:11.649Z,99906.66
2022-11-23T05:16:41.525Z,99909.16
2022-11-23T05:19:09.159Z,99908.00
2022-11-23T05:21:36.729Z,99902.91
2022-11-23T05:24:04.680Z,99905.53
2022-11-23T05:26:32.236Z,99911.44
2022-11-23T05:28:59.845Z,99908.47
2022-11-23T05:31:27.390Z,99910.28
2022-11-23T05:33:56.357Z,99907.50
2022-11-23T05:36:23.925Z,99906.47
2022-11-23T05:38:51.539Z,99898.41
2022-11-23T05:41:19.148Z,99902.03
2022-11-23T05:43:46.711Z,99893.28
2022-11-23T05:46:14.305Z,99892.31
2022-11-23T05:48:41.899Z,99895.94
2022-11-23T05:51:10.877Z,99905.50
2022-11-23T05:53:38.454Z,99902.66
2022-11-23T05:56:06.661Z,99902.50
2022-11-23T05:58:34.228Z,99901.69
2022-11-23T06:01:02.666Z,99900.03
2022-11-23T06:03:30.324Z,99905.50
2022-11-23T06:05:57.973Z,99899.25
2022-11-23T06:08:26.889Z,99904.66
2022-11-23T06:10:54.426Z,99901.22
2022-11-23T06:13:21.989Z,99904.66
2022-11-23T06:15:49.531Z,99903.19
2022-11-23T06:18:17.117Z,99899.41
2022-11-23T06:20:44.711Z,99902.22
2022-11-23T06:23:12.278Z,99897.09
2022-11-23T06:25:41.501Z,99903.19
2022-11-23T06:28:09.172Z,99904.84
2022-11-23T06:30:36.708Z,99897.09
2022-11-23T06:33:05.348Z,99903.84
2022-11-23T06:35:32.945Z,99904.66
2022-11-23T06:38:00.496Z,99913.75
2022-11-23T06:40:28.721Z,99916.88
2022-11-23T06:43:01.083Z,99912.56
2022-11-23T06:45:28.721Z,99922.78
2022-11-23T06:47:57.313Z,99924.25
2022-11-23T06:50:24.968Z,99920.44
2022-11-23T06:52:56.340Z,99921.25
2022-11-23T06:55:24.224Z,99921.75
2022-11-23T06:57:51.907Z,99916.97
2022-11-23T07:00:21.415Z,99914.97
2022-11-23T07:02:53.165Z,99928.00
2022-11-23T07:05:21.149Z,99923.00
2022-11-23T07:07:48.858Z,99924.31
2022-11-23T07:10:16.631Z,99925.94
2022-11-23T07:12:44.234Z,99922.13
2022-11-23T07:15:12.538Z,99927.88
2022-11-23T07:17:42.450Z,99927.53
2022-11-23T07:20:12.252Z,99922.94
2022-11-23T07:22:40.200Z,99930.50
2022-11-23T07:25:08.359Z,99926.50
2022-11-23T07:27:35.919Z,99930.97
2022-11-23T07:30:03.559Z,99937.53
2022-11-23T07:32:31.703Z,99931.44
2022-11-23T07:35:00.588Z,99937.81
2022-11-23T07:37:28.191Z,99934.69
2022-11-23T07:39:57.936Z,99937.13
2022-11-23T07:42:37.203Z,99938.25
2022-11-23T07:45:09.746Z,99940.38
2022-11-23T07:47:37.928Z,99938.22
2022-11-23T07:50:09.517Z,99936.84
2022-11-23T07:52:37.893Z,99929.88
2022-11-23T07:55:06.485Z,99941.19
2022-11-23T07:57:34.028Z,99937.84
2022-11-23T08:00:01.665Z,99938.69
2022-11-23T08:02:29.312Z,99946.25
2022-11-23T08:04:56.873Z,99938.13
2022-11-23T08:07:25.790Z,99939.78
2022-11-23T08:09:53.360Z,99938.13
2022-11-23T08:12:21.580Z,99944.91
2022-11-23T08:14:49.137Z,99946.38
2022-11-23T08:17:16.725Z,99945.00
2022-11-23T08:19:44.294Z,99946.84
2022-11-23T08:22:15.633Z,99944.84
2022-11-23T08:24:45.189Z,99946.66
2022-11-23T08:27:12.817Z,99939.56
2022-11-23T08:29:40.452Z,99937.38
2022-11-23T08:32:08.060Z,99947.13
2022-11-23T08:34:35.607Z,99944.94
2022-11-23T08:37:03.198Z,99946.41
2022-11-23T08:39:30.800Z,99949.53
2022-11-23T08:41:59.686Z,99939.78
2022-11-23T08:44:27.248Z,99943.31
2022-11-23T08:46:54.820Z,99961.00
2022-11-23T08:49:22.392Z,99948.44
2022-11-23T08:51:50.474Z,99948.72
2022-11-23T08:54:18.177Z,99959.41
2022-11-23T08:56:45.758Z,99960.84
2022-11-23T08:59:14.732Z,99960.50
2022-11-23T09:01:42.416Z,99962.50
2022-11-23T09:04:10.084Z,99959.78
2022-11-23T09:06:37.740Z,99957.88
2022-11-23T09:09:05.347Z,99959.78
2022-11-23T09:11:32.885Z,99955.13
2022-11-23T09:14:00.445Z,99956.88
2022-11-23T09:16:33.677Z,99953.53
2022-11-23T09:19:02.296Z,99954.69
2022-11-23T09:21:33.397Z,99959.69
2022-11-23T09:24:01.053Z,99947.22
2022-11-23T09:26:28.668Z,99953.59
2022-11-23T09:28:56.226Z,99952.75
2022-11-23T09:31:26.734Z,99955.66
2022-11-23T09:33:55.640Z,99950.69
2022-11-23T09:36:23.800Z,99954.31
2022-11-23T09:38:56.748Z,99958.25
2022-11-23T09:41:43.024Z,99967.81
2022-11-23T09:44:22.665Z,99966.00
2022-11-23T09:47:02.935Z,99963.81
2022-11-23T09:49:38.118Z,99965.88
2022-11-23T09:52:15.797Z,99978.94
2022-11-23T09:54:46.648Z,99972.00
2022-11-23T09:57:19.373Z,99965.50
2022-11-23T09:59:54.428Z,99974.09
2022-11-23T10:02:24.160Z,99969.06
2022-11-23T10:04:54.569Z,99967.50
2022-11-23T10:07:39.453Z,99966.94
2022-11-23T10:10:21.136Z,99966.06
2022-11-23T10:12:56.226Z,99971.25
2022-11-23T10:15:29.508Z,99970.50
2022-11-23T10:18:19.268Z,99975.34
2022-11-23T10:21:10.204Z,99972.56
2022-11-23T10:23:52.555Z,99975.72
2022-11-23T10:26:22.127Z,99977.59
2022-11-23T10:28:51.328Z,99967.25
2022-11-23T10:31:20.910Z,99972.66
2022-11-23T10:33:57.100Z,99972.59
2022-11-23T10:36:26.033Z,99973.72
2022-11-23T10:38:58.588Z,99970.06
2022-11-23T10:41:26.877Z,99976.41
2022-11-23T10:44:03.521Z,99975.97
2022-11-23T10:46:32.860Z,99976.97
2022-11-23T10:49:16.983Z,99972.88
2022-11-23T10:51:55.927Z,99974.94
2022-11-23T10:54:27.562Z,99979.63
2022-11-23T10:56:56.117Z,99982.72
2022-11-23T10:59:35.912Z,99982.50
2022-11-23T11:02:16.093Z,99984.38
2022-11-23T11:04:43.980Z,99985.56
2022-11-23T11:07:20.586Z,99976.59
2022-11-23T11:09:51.737Z,99977.97
2022-11-23T11:12:20.173Z,99982.88
2022-11-23T11:15:11.239Z,99977.53
2022-11-23T11:17:41.931Z,99978.97
2022-11-23T11:20:32.234Z,99989.13
2022-11-23T11:23:03.593Z,99977.91
2022-11-23T11:25:35.546Z,99980.34
2022-11-23T11:28:04.445Z,99976.53
2022-11-23T11:30:42.421Z,99974.88
2022-11-23T11:33:15.649Z,99969.81
2022-11-23T11:35:47.440Z,99977.84
2022-11-23T11:38:22.247Z,99972.00
2022-11-23T11:40:51.325Z,99975.94
2022-11-23T11:43:27.724Z,99977.38
2022-11-23T11:48:55.580Z,99973.50
2022-11-23T11:51:26.928Z,99971.44
2022-11-23T11:54:00.854Z,99973.69
2022-11-23T11:56:35.723Z,99975.53
2022-11-23T11:59:14.074Z,99974.13
2022-11-23T12:01:49.233Z,99971.84
2022-11-23T12:04:24.480Z,99975.56
2022-11-23T12:06:59.926Z,99983.94
2022-11-23T12:09:36.001Z,99972.50
2022-11-23T12:12:05.663Z,99970.09
2022-11-23T12:14:33.502Z,99971.97
2022-11-23T12:17:32.058Z,99970.53
2022-11-23T12:20:04.997Z,99971.56
2022-11-23T12:22:42.624Z,99968.66
2022-11-23T12:25:23.437Z,99970.25
2022-11-23T12:28:02.928Z,99968.97
2022-11-23T12:30:36.153Z,99968.56
2022-11-23T12:33:25.838Z,99973.00
2022-11-23T12:36:23.803Z,99974.84
2022-11-23T12:38:56.057Z,99963.59
2022-11-23T12:41:31.111Z,99966.88
2022-11-23T12:44:18.650Z,99964.03
2022-11-23T12:46:55.965Z,99966.50
2022-11-23T12:49:38.969Z,99961.59
2022-11-23T12:52:27.024Z,99958.31
2022-11-23T12:55:03.773Z,99971.59
2022-11-23T12:57:37.106Z,99964.63
2022-11-23T13:00:08.429Z,99967.75
2022-11-23T13:03:06.369Z,99968.78
2022-11-23T13:05:56.631Z,99963.84
2022-11-23T13:08:44.794Z,99967.34
2022-11-23T13:11:25.921Z,99969.56
2022-11-23T13:14:07.956Z,99976.72
2022-11-23T13:16:57.643Z,99973.81
2022-11-23T13:20:09.649Z,99972.59
2022-11-23T13:22:40.099Z,99968.06
2022-11-23T13:25:24.017Z,99969.72
2022-11-23T13:28:26.653Z,99972.38
2022-11-23T13:31:20.845Z,99973.59
2022-11-23T13:33:50.276Z,99973.97
2022-11-23T13:37:11.209Z,99961.09
2022-11-23T13:40:00.423Z,99962.94
2022-11-23T13:42:29.029Z,99968.84
2022-11-23T13:45:24.841Z,99966.41
2022-11-23T13:48:34.281Z,99964.75
2022-11-23T13:51:02.873Z,99958.63
2022-11-23T13:53:35.006Z,99960.50
2022-11-23T13:56:22.608Z,99971.28
2022-11-23T13:58:55.697Z,99963.09
2022-11-23T14:02:00.552Z,99963.09
2022-11-23T14:04:30.934Z,99961.44
2022-11-23T14:07:02.838Z,99956.16
2022-11-23T14:09:36.697Z,99963.28
2022-11-23T14:12:13.573Z,99951.44
2022-11-23T14:14:52.014Z,99964.06
2022-11-23T14:17:52.715Z,99955.06
2022-11-23T14:20:51.902Z,99953.44
2022-11-23T14:23:41.440Z,99958.69
2022-11-23T14:26:22.436Z,99960.75
2022-11-23T14:29:04.240Z,99946.47
2022-11-23T14:31:44.538Z,99948.13
2022-11-23T14:34:21.873Z,99950.78
2022-11-23T14:37:14.609Z,99951.78
2022-11-23T14:40:06.644Z,99954.44
2022-11-23T14:42:40.143Z,99954.22
2022-11-23T14:45:13.084Z,99952.31
2022-11-23T14:47:40.724Z,99951.88
2022-11-23T14:50:21.989Z,99958.13
2022-11-23T14:52:52.967Z,99960.31
2022-11-23T14:55:22.769Z,99970.41
2022-11-23T14:57:55.092Z,99961.78
2022-11-23T15:00:31.049Z,99970.66
2022-11-23T15:03:20.767Z,99965.50
2022-11-23T15:05:53.644Z,99965.19
2022-11-23T15:08:25.857Z,99975.91
2022-11-23T15:11:01.547Z,99980.53
2022-11-23T15:13:31.459Z,99979.63
2022-11-23T15:15:59.788Z,99983.84
2022-11-23T15:18:29.210Z,99996.97
2022-11-23T15:20:59.865Z,99986.50
2022-11-23T15:23:37.549Z,100003.13
2022-11-23T15:26:07.656Z,99997.75
2022-11-23T15:28:37.863Z,99992.34
2022-11-23T15:31:19.742Z,99992.91
2022-11-23T15:33:50.324Z,100002.19
2022-11-23T15:36:22.517Z,100000.13
2022-11-23T15:38:51.994Z,100014.69
2022-11-23T15:41:19.762Z,100002.84
2022-11-23T15:43:55.393Z,100014.59
2022-11-23T15:46:26.361Z,100013.31
2022-11-23T15:48:55.475Z,100013.72
2022-11-23T15:51:27.320Z,100020.16
2022-11-23T15:53:59.301Z,100023.00
2022-11-23T15:56:31.029Z,100021.34
2022-11-23T15:59:01.064Z,100032.28
2022-11-23T16:01:29.093Z,100035.13
2022-11-23T16:04:01.986Z,100040.22
2022-11-23T16:06:36.778Z,100043.53
2022-11-23T16:09:54.911Z,100044.16
2022-11-23T16:12:28.521Z,100049.91
2022-11-23T16:14:57.659Z,100047.91
2022-11-23T16:17:27.037Z,100052.97
2022-11-23T16:19:56.152Z,100046.69
2022-11-23T16:22:29.251Z,100049.97
2022-11-23T16:25:07.230Z,100062.84
2022-11-23T16:27:35.260Z,100061.69
2022-11-23T16:30:04.671Z,100056.19
2022-11-23T16:32:33.485Z,100060.50
2022-11-23T16:35:16.604Z,100061.75
2022-11-23T16:37:44.379Z,100051.84
2022-11-23T16:40:14.788Z,100059.41
2022-11-23T16:42:42.359Z,100054.75
2022-11-23T16:45:11.084Z,100057.22
2022-11-23T16:47:52.525Z,100051.56
2022-11-23T16:50:20.312Z,100048.72
2022-11-23T16:52:47.871Z,100054.22
2022-11-23T16:55:17.334Z,100053.03
2022-11-23T16:57:45.386Z,100050.38
2022-11-23T17:00:17.935Z,100056.53
2022-11-23T17:02:45.894Z,100058.81
2022-11-23T17:05:17.282Z,100048.22
2022-11-23T17:07:45.133Z,100058.63
2022-11-23T17:10:14.772Z,100046.38
2022-11-23T17:12:50.033Z,100045.59
2022-11-23T17:15:18.856Z,100045.59
2022-11-23T17:17:46.408Z,100032.34
2022-11-23T17:20:15.168Z,100042.94
2022-11-23T17:22:43.258Z,100047.19
2022-11-23T17:25:15.115Z,100047.19
2022-11-23T17:27:46.793Z,100044.75
2022-11-23T17:30:17.026Z,100042.75
2022-11-23T17:32:44.649Z,100041.75
2022-11-23T17:35:12.228Z,100036.25
2022-11-23T17:37:40.010Z,100045.84
2022-11-23T17:40:14.590Z,100057.06
2022-11-23T17:42:42.174Z,100055.03
2022-11-23T17:45:12.277Z,100051.75
2022-11-23T17:47:41.738Z,100054.03
2022-11-23T17:50:13.741Z,100058.34
2022-11-23T17:52:44.259Z,100072.19
2022-11-23T17:55:12.951Z,100080.97
2022-11-23T17:57:40.810Z,100076.31
2022-11-23T18:00:15.536Z,100081.59
2022-11-23T18:02:44.501Z,100085.91
2022-11-23T18:05:15.208Z,100081.44
2022-11-23T18:07:47.218Z,100084.91
2022-11-23T18:10:14.817Z,100088.34
2022-11-23T18:12:44.399Z,100089.53
2022-11-23T18:15:12.646Z,100085.91
2022-11-23T18:17:40.394Z,100099.28
2022-11-23T18:20:11.322Z,100103.59
2022-11-23T18:22:39.307Z,100109.72
2022-11-23T18:25:07.600Z,100105.63
2022-11-23T18:27:35.360Z,100110.09
2022-11-23T18:30:03.092Z,100111.44
2022-11-23T18:32:30.661Z,100116.09
2022-11-23T18:34:58.268Z,100112.81
2022-11-23T18:37:27.334Z,100114.66
2022-11-23T18:39:54.896Z,100113.19
2022-11-23T18:42:23.113Z,100124.97
2022-11-23T18:44:50.684Z,100123.47
2022-11-23T18:47:18.208Z,100119.19
2022-11-23T18:49:45.761Z,100132.56
2022-11-23T18:52:13.939Z,100129.03
2022-11-23T18:54:43.256Z,100128.72
2022-11-23T18:57:11.933Z,100129.44
2022-11-23T18:59:57.531Z,100129.63
2022-11-23T19:02:25.817Z,100140.38
2022-11-23T19:04:53.392Z,100135.91
2022-11-23T19:07:26.570Z,100135.91
2022-11-23T19:09:56.257Z,100140.84
2022-11-23T19:12:23.851Z,100136.38
2022-11-23T19:14:51.430Z,100134.22
2022-11-23T19:17:19.008Z,100138.47
2022-11-23T19:19:46.581Z,100140.94
2022-11-23T19:22:14.142Z,100147.22
2022-11-23T19:24:41.709Z,100140.94
2022-11-23T19:27:10.752Z,100139.97
2022-11-23T19:29:38.615Z,100132.19
2022-11-23T19:32:08.569Z,100143.13
2022-11-23T19:34:36.397Z,100136.38
2022-11-23T19:37:03.976Z,100147.47
2022-11-23T19:39:31.864Z,100149.38
2022-11-23T19:41:59.789Z,100142.00
2022-11-23T19:44:28.718Z,100142.88
2022-11-23T19:46:56.301Z,100143.41
2022-11-23T19:49:23.998Z,100148.78
2022-11-23T19:51:53.670Z,100140.88
2022-11-23T19:54:21.287Z,100143.59
2022-11-23T19:56:50.444Z,100139.84
2022-11-23T19:59:18.274Z,100148.47
2022-11-23T20:01:47.375Z,100148.34
2022-11-23T20:04:14.973Z,100146.41
2022-11-23T20:06:43.373Z,100153.84
2022-11-23T20:09:12.456Z,100149.91
2022-11-23T20:11:42.424Z,100153.88
2022-11-23T20:14:13.944Z,100160.50
2022-11-23T20:16:41.709Z,100148.00
2022-11-23T20:19:11.080Z,100161.53
2022-11-23T20:21:39.183Z,100144.41
2022-11-23T20:24:09.889Z,100146.72
2022-11-23T20:26:37.998Z,100151.72
2022-11-23T20:29:06.933Z,100154.53
2022-11-23T20:31:35.275Z,100152.88
2022-11-23T20:34:06.817Z,100151.41
2022-11-23T20:36:38.038Z,100154.06
2022-11-23T20:39:07.980Z,100159.00
2022-11-23T20:41:37.529Z,100161.28
2022-11-23T20:44:07.262Z,100163.41
2022-11-23T20:49:22.740Z,100164.38
2022-11-23T20:51:51.751Z,100166.19
2022-11-23T20:54:19.445Z,100153.31
2022-11-23T20:56:46.983Z,100159.59
2022-11-23T20:59:14.821Z,100164.41
2022-11-23T21:01:42.612Z,100165.09
2022-11-23T21:04:10.613Z,100168.22
2022-11-23T21:06:39.900Z,100169.59
2022-11-23T21:09:10.957Z,100170.56
2022-11-23T21:11:56.269Z,100176.19
2022-11-23T21:14:30.337Z,100178.34
2022-11-23T21:16:59.370Z,100183.97
2022-11-23T21:19:28.525Z,100177.22
2022-11-23T21:21:57.089Z,100185.47
2022-11-23T21:24:26.682Z,100186.44
2022-11-23T21:26:54.305Z,100178.88
2022-11-23T21:29:21.976Z,100192.25
2022-11-23T21:31:50.481Z,100184.66
2022-11-23T21:34:20.399Z,100194.41
2022-11-23T21:36:49.147Z,100184.16
2022-11-23T21:39:17.142Z,100190.63
2022-11-23T21:41:49.511Z,100189.94
2022-11-23T21:44:17.916Z,100191.28
2022-11-23T21:46:45.702Z,100198.56
2022-11-23T21:49:13.476Z,100202.31
2022-11-23T21:51:42.522Z,100191.13
2022-11-23T21:54:14.075Z,100197.38
2022-11-23T21:56:42.333Z,100193.28
2022-11-23T21:59:12.349Z,100197.91
2022-11-23T22:01:40.459Z,100196.41
2022-11-23T22:04:11.177Z,100203.50
2022-11-23T22:06:39.687Z,100197.59
2022-11-23T22:09:09.166Z,100196.06
2022-11-23T22:11:38.177Z,100203.19
2022-11-23T22:14:07.795Z,100195.44
2022-11-23T22:16:38.256Z,100202.50
2022-11-23T22:19:07.220Z,100213.25
2022-11-23T22:21:36.809Z,100210.75
2022-11-23T22:24:05.364Z,100217.69
2022-11-23T22:26:33.833Z,100215.19
2022-11-23T22:29:02.746Z,100218.50
2022-11-23T22:31:32.977Z,100211.91
2022-11-23T22:34:03.295Z,100221.78
2022-11-23T22:36:31.428Z,100215.69
2022-11-23T22:39:01.872Z,100217.47
2022-11-23T22:41:30.833Z,100228.69
2022-11-23T22:43:59.596Z,100228.66
2022-11-23T22:46:27.231Z,100217.44
2022-11-23T22:48:59.106Z,100218.44
2022-11-23T22:51:29.637Z,100217.56
2022-11-23T22:53:58.717Z,100222.16
2022-11-23T22:56:27.455Z,100223.31
2022-11-23T22:58:55.068Z,100224.63
2022-11-23T23:01:24.012Z,100230.03
2022-11-23T23:03:55.352Z,100224.41
2022-11-23T23:06:24.715Z,100229.19
2022-11-23T23:08:56.461Z,100223.56
2022-11-23T23:11:25.011Z,100222.22
2022-11-23T23:13:52.903Z,100217.44
2022-11-23T23:16:20.915Z,100218.56
2022-11-23T23:18:48.748Z,100223.31
2022-11-23T23:21:17.738Z,100215.84
2022-11-23T23:23:47.096Z,100227.56
2022-11-23T23:26:18.850Z,100226.22
2022-11-23T23:28:46.958Z,100225.03
2022-11-23T23:31:16.635Z,100227.34
2022-11-23T23:33:44.431Z,100234.09
2022-11-23T23:36:13.441Z,100225.38
2022-11-23T23:38:41.326Z,100233.09
2022-11-23T23:41:11.024Z,100236.56
2022-11-23T23:43:40.629Z,100232.94
2022-11-23T23:46:10.235Z,100241.53
2022-11-23T23:48:39.511Z,100239.69
2022-11-23T23:51:07.900Z,100251.56
2022-11-23T23:53:35.873Z,100246.28
2022-11-23T23:56:05.815Z,100248.75
2022-11-23T23:58:33.424Z,100247.09
